This is the latest recevied weather packets stored in our database for station/object N0TKN. If no packets are shown the sender has not sent any weather packets the latest 10 day(s).
| Time | Temp. | Humidity | Pressure | Rain* | Wind** | Luminosity | Snow |
|---|---|---|---|---|---|---|---|
| 1777708517 | 7.78° C | 86% | 1017.5 hPa | 0 mm | - | 0 W/m² | - |
| 1777707917 | 7.78° C | 84% | 1017.5 hPa | 0 mm | - | 0 W/m² | - |
| 1777707316 | 8.33° C | 83% | 1017.4 hPa | 0 mm | - | 0 W/m² | - |
| 1777706716 | 8.33° C | 84% | 1017.4 hPa | 0 mm | - | 0 W/m² | - |
| 1777706116 | 8.33° C | 81% | 1017.4 hPa | 0 mm | - | 0 W/m² | - |
| 1777705517 | 8.33° C | 81% | 1017.1 hPa | 0 mm | - | 0 W/m² | - |
| 1777704917 | 8.33° C | 81% | 1017.3 hPa | 0 mm | - | 0 W/m² | - |
| 1777704317 | 8.33° C | 81% | 1017.5 hPa | 0 mm | - | 0 W/m² | - |
| 1777703717 | 8.89° C | 80% | 1017.6 hPa | 0 mm | - | 0 W/m² | - |
| 1777703117 | 8.89° C | 78% | 1017.5 hPa | 0 mm | - | 0 W/m² | - |
| 1777702518 | 9.44° C | 78% | 1017.5 hPa | 0 mm | - | 0 W/m² | - |
| 1777701918 | 9.44° C | 77% | 1017.3 hPa | 0 mm | - | 0 W/m² | - |
| 1777701318 | 9.44° C | 76% | 1017 hPa | 0 mm | - | 0 W/m² | - |
| 1777700718 | 9.44° C | 75% | 1017 hPa | 0 mm | - | 0 W/m² | - |
| 1777700118 | 8.89° C | 77% | 1017.2 hPa | 0 mm | - | 0 W/m² | - |
| 1777699518 | 8.89° C | 77% | 1017.2 hPa | 0 mm | - | 0 W/m² | - |
| 1777698916 | 8.89° C | 79% | 1017.2 hPa | 0 mm | - | 0 W/m² | - |
| 1777698318 | 8.33° C | 80% | 1017.3 hPa | 0 mm | - | 0 W/m² | - |
| 1777697719 | 8.33° C | 82% | 1017.3 hPa | 0 mm | - | 0 W/m² | - |
| 1777697116 | 8.33° C | 82% | 1017.4 hPa | 0 mm | - | 0 W/m² | - |
| 1777696516 | 8.89° C | 80% | 1017.5 hPa | 0 mm | - | 0 W/m² | - |
| 1777695916 | 8.89° C | 78% | 1017.4 hPa | 0 mm | - | 0 W/m² | - |
| 1777695316 | 9.44° C | 77% | 1017.5 hPa | 0 mm | - | 0 W/m² | - |
| 1777694716 | 10° C | 74% | 1017.4 hPa | 0 mm | - | 0 W/m² | - |
| 1777694116 | 10.56° C | 72% | 1017.3 hPa | 0 mm | - | 0 W/m² | - |
* Rain latest hour (hover to see other rain measurements)
** Current wind speed in m/s (hover to see current wind gust speed)